Time;durP1;ratioP1;P1;durP2;ratioP2;P2;SDS_P1;SDS_P2;PMS_P1;PMS_P2;Temp;Humidity;BMP_temperature;BMP_pressure;BME280_temperature;BME280_humidity;BME280_pressure;Samples;Min_cycle;Max_cycle;Signal;HPM_P1;HPM_P2
2023/05/07 00:00:34;;;;;;;20.13;12.85;;;;;;;;;;5053994;28;20139;-70
2023/05/07 00:03:01;;;;;;;23.25;13.95;;;;;;;;;;5069988;28;20399;-70
2023/05/07 00:05:27;;;;;;;21.47;12.87;;;;;;;;;;5052159;28;20139;-70
2023/05/07 00:07:54;;;;;;;21.58;12.20;;;;;;;;;;5071359;28;20170;-70
2023/05/07 00:10:22;;;;;;;20.83;12.93;;;;;;;;;;5050163;28;20090;-70
2023/05/07 00:12:49;;;;;;;21.20;14.57;;;;;;;;;;5070619;28;20132;-70
2023/05/07 00:15:15;;;;;;;17.33;12.93;;;;;;;;;;5071407;28;20044;-71
2023/05/07 00:17:41;;;;;;;22.60;13.90;;;;;;;;;;5065820;28;20380;-70
2023/05/07 00:20:08;;;;;;;36.15;20.63;;;;;;;;;;5070324;28;20076;-70
2023/05/07 00:22:35;;;;;;;23.65;15.70;;;;;;;;;;5060238;28;20174;-70
2023/05/07 00:25:01;;;;;;;21.23;13.25;;;;;;;;;;5071243;28;20055;-69
2023/05/07 00:27:28;;;;;;;21.20;13.70;;;;;;;;;;5056034;28;20068;-69
2023/05/07 00:29:54;;;;;;;25.33;15.02;;;;;;;;;;5069031;28;20048;-70
2023/05/07 00:32:20;;;;;;;22.30;13.75;;;;;;;;;;5056856;28;20053;-70
2023/05/07 00:34:47;;;;;;;23.23;13.60;;;;;;;;;;5071160;28;20052;-70
2023/05/07 00:37:13;;;;;;;23.20;14.48;;;;;;;;;;5054825;28;20049;-70
2023/05/07 00:39:40;;;;;;;35.53;22.35;;;;;;;;;;5070758;28;20148;-70
2023/05/07 00:42:06;;;;;;;42.05;27.55;;;;;;;;;;5053586;28;20049;-70
2023/05/07 00:44:32;;;;;;;40.75;26.80;;;;;;;;;;5071479;28;20063;-70
2023/05/07 00:47:01;;;;;;;26.23;14.20;;;;;;;;;;5058593;28;20092;-70
2023/05/07 00:49:34;;;;;;;24.73;15.80;;;;;;;;;;5070125;28;20083;-70
2023/05/07 00:52:01;;;;;;;24.35;15.50;;;;;;;;;;5058907;28;20515;-70
2023/05/07 00:54:27;;;;;;;25.85;18.13;;;;;;;;;;5069946;28;20038;-70
2023/05/07 00:56:54;;;;;;;42.42;27.33;;;;;;;;;;5060964;28;20052;-70
2023/05/07 00:59:20;;;;;;;47.38;30.50;;;;;;;;;;5065678;28;20080;-70
2023/05/07 01:01:47;;;;;;;26.45;19.17;;;;;;;;;;5062540;28;20057;-70
2023/05/07 01:04:13;;;;;;;24.83;15.60;;;;;;;;;;5043215;28;20542;-70
2023/05/07 01:06:41;;;;;;;24.63;14.82;;;;;;;;;;5045396;28;20094;-71
2023/05/07 01:09:09;;;;;;;24.70;17.30;;;;;;;;;;5066005;28;20041;-71
2023/05/07 01:11:35;;;;;;;34.97;23.02;;;;;;;;;;5074004;28;20490;-71
2023/05/07 01:14:02;;;;;;;25.17;15.75;;;;;;;;;;5074286;28;20480;-71
2023/05/07 01:16:28;;;;;;;24.00;15.00;;;;;;;;;;5072798;28;20473;-71
2023/05/07 01:18:55;;;;;;;30.17;17.13;;;;;;;;;;5074740;28;20052;-71
2023/05/07 01:21:24;;;;;;;25.45;16.90;;;;;;;;;;5074339;28;20059;-71
2023/05/07 01:23:51;;;;;;;25.95;16.85;;;;;;;;;;5073658;28;20150;-72
2023/05/07 01:26:19;;;;;;;30.13;18.70;;;;;;;;;;5074221;28;20048;-72
2023/05/07 01:28:45;;;;;;;27.55;19.90;;;;;;;;;;5074347;28;20067;-72
2023/05/07 01:31:13;;;;;;;23.55;17.23;;;;;;;;;;5074142;28;20040;-72
2023/05/07 01:33:41;;;;;;;21.02;15.20;;;;;;;;;;5074239;28;20048;-72
2023/05/07 01:36:08;;;;;;;18.30;13.32;;;;;;;;;;5074478;28;20128;-73
2023/05/07 01:38:36;;;;;;;27.02;13.20;;;;;;;;;;5073028;28;20048;-73
2023/05/07 01:41:02;;;;;;;19.00;12.48;;;;;;;;;;5073931;28;20131;-73
2023/05/07 01:43:30;;;;;;;15.70;12.15;;;;;;;;;;5074086;28;20418;-73
2023/05/07 01:45:57;;;;;;;17.08;12.48;;;;;;;;;;5073919;28;20399;-73
2023/05/07 01:48:24;;;;;;;18.60;12.13;;;;;;;;;;5073629;28;20076;-73
2023/05/07 01:50:51;;;;;;;16.25;12.13;;;;;;;;;;5073617;28;20760;-73
2023/05/07 01:53:17;;;;;;;17.83;11.50;;;;;;;;;;5073817;28;20072;-73
2023/05/07 01:55:43;;;;;;;14.57;11.13;;;;;;;;;;5073894;28;20135;-73
2023/05/07 01:58:10;;;;;;;17.05;11.55;;;;;;;;;;5073541;28;20040;-73
2023/05/07 02:00:36;;;;;;;17.13;12.27;;;;;;;;;;5073298;28;20494;-73
2023/05/07 02:03:03;;;;;;;16.85;12.77;;;;;;;;;;5072993;28;20048;-74
2023/05/07 02:05:29;;;;;;;25.08;17.58;;;;;;;;;;5072578;28;20044;-74
2023/05/07 02:07:56;;;;;;;24.90;14.65;;;;;;;;;;5073412;28;20040;-74
2023/05/07 02:10:22;;;;;;;18.85;14.25;;;;;;;;;;5073145;28;20037;-74
2023/05/07 02:12:48;;;;;;;20.38;14.52;;;;;;;;;;5073477;28;20048;-74
2023/05/07 02:15:15;;;;;;;21.20;15.05;;;;;;;;;;5073128;28;20075;-74
2023/05/07 02:18:01;;;;;;;23.20;16.40;;;;;;;;;;5073054;28;20061;-73
2023/05/07 02:20:27;;;;;;;21.42;14.30;;;;;;;;;;5073452;28;20129;-73
2023/05/07 02:22:54;;;;;;;18.30;13.65;;;;;;;;;;5073129;28;20058;-73
2023/05/07 02:25:20;;;;;;;18.00;12.90;;;;;;;;;;5072923;28;20059;-74
2023/05/07 02:27:47;;;;;;;18.58;12.52;;;;;;;;;;5073138;28;20048;-74
2023/05/07 02:30:13;;;;;;;20.13;14.55;;;;;;;;;;5072767;28;20052;-74
2023/05/07 02:32:40;;;;;;;18.00;13.20;;;;;;;;;;5073149;28;20514;-74
2023/05/07 02:35:07;;;;;;;17.30;12.48;;;;;;;;;;5072769;28;20044;-74
2023/05/07 02:37:33;;;;;;;25.42;15.75;;;;;;;;;;5072737;28;20051;-74
2023/05/07 02:39:59;;;;;;;23.45;16.92;;;;;;;;;;5072942;28;20057;-74
2023/05/07 02:42:26;;;;;;;24.40;16.10;;;;;;;;;;5072576;28;20087;-74
2023/05/07 02:44:52;;;;;;;28.65;17.45;;;;;;;;;;5072491;28;20066;-74
2023/05/07 02:47:19;;;;;;;31.25;17.92;;;;;;;;;;5072474;28;20059;-73
2023/05/07 02:49:45;;;;;;;27.90;18.02;;;;;;;;;;5072384;28;20048;-73
2023/05/07 02:52:11;;;;;;;31.73;20.13;;;;;;;;;;5071472;28;20048;-73
2023/05/07 02:54:38;;;;;;;28.10;18.67;;;;;;;;;;5072442;28;20401;-73
2023/05/07 02:57:04;;;;;;;27.42;17.35;;;;;;;;;;5072546;28;20051;-73
2023/05/07 02:59:31;;;;;;;24.70;16.35;;;;;;;;;;5072208;28;20511;-73
2023/05/07 03:01:57;;;;;;;25.23;17.10;;;;;;;;;;5072216;28;20063;-73
2023/05/07 03:04:23;;;;;;;31.60;18.65;;;;;;;;;;5064393;28;20051;-74
2023/05/07 03:06:50;;;;;;;29.88;18.17;;;;;;;;;;5072411;28;20052;-74
2023/05/07 03:09:16;;;;;;;25.85;17.30;;;;;;;;;;5071595;28;20045;-74
2023/05/07 03:11:43;;;;;;;29.48;18.83;;;;;;;;;;5072325;28;20076;-74
2023/05/07 03:14:09;;;;;;;30.85;18.70;;;;;;;;;;5072038;28;20050;-74
2023/05/07 03:16:36;;;;;;;28.77;18.98;;;;;;;;;;5072307;28;20124;-74
2023/05/07 03:19:02;;;;;;;22.35;15.65;;;;;;;;;;5071063;28;20062;-74
2023/05/07 03:21:28;;;;;;;25.70;15.75;;;;;;;;;;5072098;28;20495;-73
2023/05/07 03:23:55;;;;;;;22.55;15.32;;;;;;;;;;5072178;28;20135;-73
2023/05/07 03:26:21;;;;;;;21.00;15.43;;;;;;;;;;5072315;28;20059;-73
2023/05/07 03:28:48;;;;;;;23.30;14.68;;;;;;;;;;5071956;28;20044;-73
2023/05/07 03:31:14;;;;;;;23.63;14.82;;;;;;;;;;5072104;28;20127;-73
2023/05/07 03:33:54;;;;;;;20.80;13.48;;;;;;;;;;5071986;28;20094;-74
2023/05/07 03:36:20;;;;;;;16.08;12.88;;;;;;;;;;5072088;28;20051;-73
2023/05/07 03:38:47;;;;;;;20.20;14.15;;;;;;;;;;5071641;28;20119;-73
2023/05/07 03:41:14;;;;;;;19.88;14.32;;;;;;;;;;5071690;28;20423;-73
2023/05/07 03:43:40;;;;;;;20.10;14.10;;;;;;;;;;5072005;28;20127;-73
2023/05/07 03:46:07;;;;;;;20.05;14.75;;;;;;;;;;5071559;28;20514;-73
2023/05/07 03:48:33;;;;;;;20.45;14.27;;;;;;;;;;5072140;28;20076;-73
2023/05/07 03:51:00;;;;;;;23.40;15.13;;;;;;;;;;5071823;28;20045;-73
2023/05/07 03:53:26;;;;;;;22.45;15.50;;;;;;;;;;5071541;28;20136;-74
2023/05/07 03:55:53;;;;;;;23.27;16.48;;;;;;;;;;5071451;28;20054;-74
2023/05/07 03:58:19;;;;;;;29.73;17.33;;;;;;;;;;5071659;28;20056;-74
2023/05/07 04:00:45;;;;;;;23.88;16.42;;;;;;;;;;5070134;28;20049;-74
2023/05/07 04:03:12;;;;;;;28.25;17.20;;;;;;;;;;5071480;28;20044;-73
2023/05/07 04:05:38;;;;;;;24.55;15.85;;;;;;;;;;5071534;28;20055;-74
2023/05/07 04:08:05;;;;;;;24.58;16.48;;;;;;;;;;5071331;28;20059;-73
2023/05/07 04:10:31;;;;;;;29.38;16.85;;;;;;;;;;5071549;28;20127;-73
2023/05/07 04:12:58;;;;;;;23.70;16.13;;;;;;;;;;5071512;28;20095;-73
2023/05/07 04:15:24;;;;;;;23.55;16.85;;;;;;;;;;5071480;28;20040;-73
2023/05/07 04:17:51;;;;;;;25.60;16.60;;;;;;;;;;5071244;28;20488;-73
2023/05/07 04:20:17;;;;;;;30.10;17.13;;;;;;;;;;5071620;28;20055;-73
2023/05/07 04:22:44;;;;;;;24.30;16.92;;;;;;;;;;5075551;28;20052;-73
2023/05/07 04:25:10;;;;;;;28.85;17.25;;;;;;;;;;5075399;28;20047;-73
2023/05/07 04:27:37;;;;;;;29.00;17.40;;;;;;;;;;5075172;28;20128;-73
2023/05/07 04:30:04;;;;;;;29.30;17.92;;;;;;;;;;5075273;28;20050;-73
2023/05/07 04:32:30;;;;;;;26.50;17.20;;;;;;;;;;5075197;28;20050;-73
2023/05/07 04:34:56;;;;;;;18.30;14.30;;;;;;;;;;5075065;28;20040;-73
2023/05/07 04:37:23;;;;;;;15.88;12.82;;;;;;;;;;5075008;28;20167;-74
2023/05/07 04:39:49;;;;;;;18.08;12.98;;;;;;;;;;5075250;28;20054;-74
2023/05/07 04:42:16;;;;;;;18.15;13.48;;;;;;;;;;5075243;28;20127;-74
2023/05/07 04:44:43;;;;;;;18.08;13.50;;;;;;;;;;5074826;28;20048;-74
2023/05/07 04:47:10;;;;;;;18.75;12.68;;;;;;;;;;5074832;28;20044;-74
2023/05/07 04:49:36;;;;;;;17.23;13.15;;;;;;;;;;5074990;28;20062;-74
2023/05/07 04:52:03;;;;;;;14.48;11.52;;;;;;;;;;5074934;28;20052;-74
2023/05/07 04:54:29;;;;;;;20.33;14.10;;;;;;;;;;5075037;28;20036;-74
2023/05/07 04:56:56;;;;;;;14.90;12.45;;;;;;;;;;5074709;28;20048;-74
2023/05/07 04:59:22;;;;;;;16.58;11.77;;;;;;;;;;5074885;28;20053;-74
2023/05/07 05:01:49;;;;;;;20.77;14.13;;;;;;;;;;5074725;28;20049;-74
2023/05/07 05:04:15;;;;;;;18.63;13.90;;;;;;;;;;5074420;28;20051;-74
2023/05/07 05:06:42;;;;;;;17.25;12.90;;;;;;;;;;5074545;28;20048;-74
2023/05/07 05:09:08;;;;;;;23.80;14.13;;;;;;;;;;5074551;28;20045;-74
2023/05/07 05:11:34;;;;;;;22.30;15.40;;;;;;;;;;5074334;28;20084;-74
2023/05/07 05:14:01;;;;;;;25.33;16.00;;;;;;;;;;5074394;28;20403;-74
2023/05/07 05:16:28;;;;;;;22.63;16.35;;;;;;;;;;5074589;28;20076;-74
2023/05/07 05:18:54;;;;;;;28.00;17.88;;;;;;;;;;5074310;28;20048;-74
2023/05/07 05:21:21;;;;;;;21.58;15.55;;;;;;;;;;5074487;28;20048;-74
2023/05/07 05:23:47;;;;;;;17.92;14.75;;;;;;;;;;5074448;28;20053;-74
2023/05/07 05:26:13;;;;;;;13.90;11.77;;;;;;;;;;5074044;28;20488;-74
2023/05/07 05:28:40;;;;;;;14.93;13.13;;;;;;;;;;5074337;28;20048;-74
2023/05/07 05:31:06;;;;;;;16.08;12.52;;;;;;;;;;5073641;28;20051;-74
2023/05/07 05:33:33;;;;;;;13.98;11.93;;;;;;;;;;5074064;28;20454;-74
2023/05/07 05:35:59;;;;;;;20.15;15.05;;;;;;;;;;5074260;28;20067;-74
2023/05/07 05:38:25;;;;;;;19.50;15.68;;;;;;;;;;5072608;28;20456;-74
2023/05/07 05:40:52;;;;;;;19.40;14.50;;;;;;;;;;5074074;28;20052;-74
2023/05/07 05:43:21;;;;;;;18.80;14.98;;;;;;;;;;5073792;28;20549;-74
2023/05/07 05:45:48;;;;;;;22.90;16.20;;;;;;;;;;5073785;28;20052;-74
2023/05/07 05:48:14;;;;;;;19.73;15.02;;;;;;;;;;5073711;28;20054;-74
2023/05/07 05:50:41;;;;;;;20.77;15.00;;;;;;;;;;5073831;28;20049;-74
2023/05/07 05:53:08;;;;;;;18.45;14.57;;;;;;;;;;5074059;28;20055;-74
2023/05/07 05:55:34;;;;;;;18.92;14.23;;;;;;;;;;5073911;28;20454;-74
2023/05/07 05:58:01;;;;;;;20.42;14.93;;;;;;;;;;5073496;28;20080;-74
2023/05/07 06:00:28;;;;;;;19.38;15.57;;;;;;;;;;5073478;28;20048;-74
2023/05/07 06:02:54;;;;;;;22.67;16.53;;;;;;;;;;5074092;28;20060;-74
2023/05/07 06:05:21;;;;;;;20.73;14.80;;;;;;;;;;5073259;28;20056;-75
2023/05/07 06:07:47;;;;;;;19.00;15.50;;;;;;;;;;5073646;28;20496;-75
2023/05/07 06:10:14;;;;;;;19.30;14.52;;;;;;;;;;5073176;28;20502;-74
2023/05/07 06:12:40;;;;;;;19.27;14.60;;;;;;;;;;5073467;28;20161;-75
2023/05/07 06:15:07;;;;;;;23.45;16.85;;;;;;;;;;5073437;28;20790;-75
2023/05/07 06:17:33;;;;;;;22.40;17.25;;;;;;;;;;5073437;28;20052;-74
2023/05/07 06:20:00;;;;;;;22.92;17.80;;;;;;;;;;5073042;28;20087;-75
2023/05/07 06:22:27;;;;;;;22.95;17.35;;;;;;;;;;5073227;28;20106;-74
2023/05/07 06:24:53;;;;;;;23.77;17.35;;;;;;;;;;5072993;28;20136;-74
2023/05/07 06:27:19;;;;;;;21.23;16.67;;;;;;;;;;5071877;28;20052;-74
2023/05/07 06:29:47;;;;;;;17.48;13.73;;;;;;;;;;5073019;28;20149;-74
2023/05/07 06:32:14;;;;;;;20.80;15.77;;;;;;;;;;5073019;28;20048;-75
2023/05/07 06:34:40;;;;;;;19.52;14.75;;;;;;;;;;5072971;28;20052;-74
2023/05/07 06:37:07;;;;;;;19.00;14.93;;;;;;;;;;5072771;28;20053;-74
2023/05/07 06:39:33;;;;;;;19.42;15.80;;;;;;;;;;5072812;28;20053;-75
2023/05/07 06:42:01;;;;;;;21.63;16.17;;;;;;;;;;5073055;28;20066;-74
2023/05/07 06:44:27;;;;;;;;;;;;;;;;;;5072104;28;20552;-74
2023/05/07 06:46:54;;;;;;;20.88;15.50;;;;;;;;;;5072724;28;19930;-74
2023/05/07 06:49:20;;;;;;;22.95;15.77;;;;;;;;;;5072486;28;20373;-74
2023/05/07 06:51:46;;;;;;;19.77;14.85;;;;;;;;;;5072663;28;20040;-74
2023/05/07 06:54:13;;;;;;;20.23;15.48;;;;;;;;;;5072586;28;20045;-74
2023/05/07 06:56:39;;;;;;;17.70;14.32;;;;;;;;;;5072693;28;20075;-74
2023/05/07 06:59:06;;;;;;;20.25;15.23;;;;;;;;;;5072197;28;20084;-75
2023/05/07 07:01:32;;;;;;;19.23;13.68;;;;;;;;;;5072384;28;20067;-75
2023/05/07 07:03:59;;;;;;;19.60;13.77;;;;;;;;;;5072686;28;20462;-75
2023/05/07 07:06:25;;;;;;;23.63;14.00;;;;;;;;;;5072333;28;20047;-75
2023/05/07 07:08:52;;;;;;;19.27;13.02;;;;;;;;;;5058419;28;20049;-75
2023/05/07 07:11:18;;;;;;;18.27;12.52;;;;;;;;;;5071547;28;20500;-69
2023/05/07 07:13:45;;;;;;;18.40;11.90;;;;;;;;;;5056624;28;20133;-77
2023/05/07 07:16:11;;;;;;;17.00;12.60;;;;;;;;;;5071844;28;20062;-77
2023/05/07 07:18:38;;;;;;;15.70;12.10;;;;;;;;;;5071578;28;20053;-79
2023/05/07 07:21:05;;;;;;;15.50;11.10;;;;;;;;;;5071404;28;20131;-78
2023/05/07 07:23:31;;;;;;;20.70;13.20;;;;;;;;;;5071670;28;20048;-77
2023/05/07 07:25:58;;;;;;;15.88;12.02;;;;;;;;;;5071304;28;20051;-79
2023/05/07 07:28:24;;;;;;;13.35;9.63;;;;;;;;;;5071423;28;20052;-78
2023/05/07 07:30:50;;;;;;;14.57;9.88;;;;;;;;;;5063420;28;20073;-74
2023/05/07 07:33:17;;;;;;;13.90;9.10;;;;;;;;;;5052013;28;20074;-75
2023/05/07 07:35:43;;;;;;;15.80;10.60;;;;;;;;;;5071383;28;20135;-79
2023/05/07 07:38:10;;;;;;;18.40;12.10;;;;;;;;;;5071226;28;20567;-78
2023/05/07 07:40:37;;;;;;;18.53;14.03;;;;;;;;;;5063246;28;20049;-80
2023/05/07 07:43:04;;;;;;;19.48;14.18;;;;;;;;;;5064891;28;20709;-76
2023/05/07 07:45:31;;;;;;;18.42;13.52;;;;;;;;;;5071584;28;20052;-75
2023/05/07 07:47:58;;;;;;;16.45;13.63;;;;;;;;;;5071095;28;20048;-76
2023/05/07 07:50:24;;;;;;;16.23;14.30;;;;;;;;;;5054731;28;20053;-79
2023/05/07 07:52:57;;;;;;;18.90;14.98;;;;;;;;;;5051023;28;20536;-78
2023/05/07 07:55:23;;;;;;;16.27;14.20;;;;;;;;;;5050911;28;20048;-81
2023/05/07 07:57:50;;;;;;;18.13;14.85;;;;;;;;;;5051177;28;20060;-80
2023/05/07 08:00:17;;;;;;;16.45;14.75;;;;;;;;;;5051567;28;20048;-78
2023/05/07 08:02:44;;;;;;;15.27;13.50;;;;;;;;;;5055618;28;20073;-79
2023/05/07 08:05:11;;;;;;;18.60;14.48;;;;;;;;;;5051294;28;20056;-78
2023/05/07 08:07:38;;;;;;;17.43;14.50;;;;;;;;;;5065686;28;20127;-75
2023/05/07 08:10:04;;;;;;;18.47;13.53;;;;;;;;;;5071115;28;20304;-74
2023/05/07 08:12:31;;;;;;;16.67;14.32;;;;;;;;;;5066056;28;20129;-76
2023/05/07 08:14:57;;;;;;;15.90;14.15;;;;;;;;;;5070741;28;20059;-77
2023/05/07 08:17:24;;;;;;;16.20;13.88;;;;;;;;;;5070933;28;20049;-77
2023/05/07 08:19:50;;;;;;;17.67;14.77;;;;;;;;;;5070777;28;20416;-77
2023/05/07 08:22:18;;;;;;;18.30;16.00;;;;;;;;;;5071039;28;20048;-77
2023/05/07 08:24:44;;;;;;;17.35;15.23;;;;;;;;;;5071065;28;20102;-76
2023/05/07 08:27:11;;;;;;;18.33;15.85;;;;;;;;;;5064517;28;20250;-78
2023/05/07 08:29:37;;;;;;;20.85;16.88;;;;;;;;;;5051057;28;20408;-79
2023/05/07 08:32:04;;;;;;;24.17;17.73;;;;;;;;;;5051041;28;20053;-78
2023/05/07 08:34:30;;;;;;;19.65;16.52;;;;;;;;;;5050398;28;20063;-79
2023/05/07 08:36:57;;;;;;;17.58;15.75;;;;;;;;;;5054761;28;20087;-79
2023/05/07 08:39:23;;;;;;;20.13;17.02;;;;;;;;;;5070584;28;20163;-77
2023/05/07 08:41:52;;;;;;;19.98;16.40;;;;;;;;;;5061523;28;20084;-83
2023/05/07 08:44:22;;;;;;;22.73;16.40;;;;;;;;;;5048977;28;20084;-79
2023/05/07 08:46:51;;;;;;;21.33;18.20;;;;;;;;;;5057423;28;20135;-76
2023/05/07 08:49:18;;;;;;;18.98;16.33;;;;;;;;;;5053944;28;20080;-78
2023/05/07 08:51:44;;;;;;;23.27;18.58;;;;;;;;;;5050394;28;20099;-79
2023/05/07 08:54:11;;;;;;;23.77;18.42;;;;;;;;;;5050509;28;20127;-79
2023/05/07 08:56:37;;;;;;;18.83;16.10;;;;;;;;;;5049433;28;20045;-80
2023/05/07 08:59:04;;;;;;;19.20;17.13;;;;;;;;;;5050067;28;20049;-79
2023/05/07 09:01:30;;;;;;;18.35;15.23;;;;;;;;;;5048226;28;20071;-79
2023/05/07 09:03:57;;;;;;;18.85;16.10;;;;;;;;;;5049484;28;20136;-78
2023/05/07 09:06:23;;;;;;;15.00;13.40;;;;;;;;;;5050126;28;20119;-80
2023/05/07 09:08:50;;;;;;;16.73;14.75;;;;;;;;;;5054000;28;20140;-77
2023/05/07 09:11:20;;;;;;;16.33;14.63;;;;;;;;;;5057236;28;20051;-79
2023/05/07 09:13:47;;;;;;;16.95;15.23;;;;;;;;;;5053191;28;20048;-78
2023/05/07 09:16:13;;;;;;;15.65;14.00;;;;;;;;;;5054028;28;20098;-78
2023/05/07 09:18:43;;;;;;;21.40;16.67;;;;;;;;;;5055269;28;20064;-76
2023/05/07 09:21:10;;;;;;;18.30;15.77;;;;;;;;;;5055682;28;20282;-79
2023/05/07 09:23:37;;;;;;;18.42;15.10;;;;;;;;;;5052762;28;20140;-76
2023/05/07 09:26:04;;;;;;;19.38;16.10;;;;;;;;;;5053807;28;20055;-76
2023/05/07 09:28:31;;;;;;;17.30;15.50;;;;;;;;;;5053607;28;20140;-76
2023/05/07 09:30:59;;;;;;;20.67;16.80;;;;;;;;;;5053586;28;20124;-76
2023/05/07 09:33:27;;;;;;;15.55;13.93;;;;;;;;;;5066035;28;20048;-75
2023/05/07 09:35:53;;;;;;;24.90;20.00;;;;;;;;;;5074007;28;20180;-75
2023/05/07 09:38:21;;;;;;;19.77;17.57;;;;;;;;;;5073712;28;20099;-76
2023/05/07 09:40:47;;;;;;;19.85;16.02;;;;;;;;;;5073403;28;21043;-76
2023/05/07 09:43:13;;;;;;;11.43;9.80;;;;;;;;;;5073281;28;20062;-76
2023/05/07 09:45:40;;;;;;;9.20;8.35;;;;;;;;;;5054783;28;20408;-76
2023/05/07 09:48:07;;;;;;;7.07;6.38;;;;;;;;;;5053434;28;20067;-76
2023/05/07 09:50:48;;;;;;;9.57;7.55;;;;;;;;;;5053247;28;20052;-76
2023/05/07 09:53:15;;;;;;;10.50;8.18;;;;;;;;;;5053001;28;20087;-77
2023/05/07 09:55:42;;;;;;;9.65;8.63;;;;;;;;;;5053307;28;20714;-76
2023/05/07 09:58:09;;;;;;;9.30;8.38;;;;;;;;;;5052963;28;20045;-75
2023/05/07 10:00:35;;;;;;;12.20;9.82;;;;;;;;;;5066338;28;20088;-77
2023/05/07 10:03:04;;;;;;;11.10;9.65;;;;;;;;;;5055077;28;20451;-76
2023/05/07 10:05:31;;;;;;;10.88;9.35;;;;;;;;;;5052693;28;20083;-76
2023/05/07 10:07:58;;;;;;;10.45;9.35;;;;;;;;;;5052871;28;20051;-77
2023/05/07 10:10:24;;;;;;;10.15;9.15;;;;;;;;;;5052296;28;20415;-76
2023/05/07 10:12:51;;;;;;;9.80;8.63;;;;;;;;;;5064511;28;20465;-77
2023/05/07 10:15:18;;;;;;;;;;;;;;;;;;5053499;28;20051;-77
2023/05/07 10:17:44;;;;;;;11.95;10.02;;;;;;;;;;5053035;28;19947;-77
2023/05/07 10:20:11;;;;;;;10.15;8.48;;;;;;;;;;5052663;28;20048;-76
2023/05/07 10:22:43;;;;;;;9.68;8.30;;;;;;;;;;5051981;28;20049;-77
2023/05/07 10:25:30;;;;;;;11.40;10.20;;;;;;;;;;5051127;28;20081;-77
2023/05/07 10:27:59;;;;;;;11.18;10.02;;;;;;;;;;5051882;28;20492;-76
2023/05/07 10:30:34;;;;;;;10.93;9.82;;;;;;;;;;5067231;28;20377;-77
2023/05/07 10:33:05;;;;;;;10.75;9.65;;;;;;;;;;5072096;28;20068;-76
2023/05/07 10:35:37;;;;;;;11.15;10.05;;;;;;;;;;5066641;28;20055;-76
2023/05/07 10:38:04;;;;;;;10.68;9.50;;;;;;;;;;5072335;28;20110;-76
2023/05/07 10:40:30;;;;;;;;;;;;;;;;;;5071715;28;20462;-75
2023/05/07 10:42:59;;;;;;;8.63;7.72;;;;;;;;;;5072249;28;19920;-75
2023/05/07 10:45:26;;;;;;;8.20;6.68;;;;;;;;;;5072302;28;20044;-76
2023/05/07 10:47:52;;;;;;;;;;;;;;;;;;5072618;28;20049;-76
2023/05/07 10:50:22;;;;;;;8.05;5.60;;;;;;;;;;5070766;28;19970;-75
2023/05/07 10:53:08;;;;;;;6.05;5.43;;;;;;;;;;5071448;28;20073;-75
2023/05/07 10:55:35;;;;;;;6.88;5.35;;;;;;;;;;5072022;28;20139;-75
2023/05/07 10:58:19;;;;;;;6.07;5.47;;;;;;;;;;5072012;28;20044;-75
2023/05/07 11:00:58;;;;;;;5.65;4.97;;;;;;;;;;5069229;28;20496;-75
2023/05/07 11:03:25;;;;;;;5.53;4.88;;;;;;;;;;5071911;28;20049;-75
2023/05/07 11:06:13;;;;;;;5.40;4.53;;;;;;;;;;5071938;28;20053;-76
2023/05/07 11:08:52;;;;;;;5.68;4.50;;;;;;;;;;5071727;28;20052;-76
2023/05/07 11:11:22;;;;;;;6.30;5.03;;;;;;;;;;5071701;28;20044;-76
2023/05/07 11:13:51;;;;;;;5.50;4.93;;;;;;;;;;5071202;28;20050;-76
2023/05/07 11:16:19;;;;;;;5.88;5.00;;;;;;;;;;5071430;28;20557;-75
2023/05/07 11:18:46;;;;;;;4.65;4.00;;;;;;;;;;5071524;28;20052;-76
2023/05/07 11:21:31;;;;;;;5.85;4.43;;;;;;;;;;5070300;28;20414;-75
2023/05/07 11:23:58;;;;;;;5.00;4.50;;;;;;;;;;5069565;28;20087;-76
2023/05/07 11:26:25;;;;;;;5.88;5.07;;;;;;;;;;5051156;28;20049;-75
2023/05/07 11:28:52;;;;;;;6.32;5.07;;;;;;;;;;5051328;28;20132;-75
2023/05/07 11:31:23;;;;;;;6.60;5.47;;;;;;;;;;5059569;28;20058;-76
2023/05/07 11:33:51;;;;;;;7.70;5.90;;;;;;;;;;5071263;28;20047;-76
2023/05/07 11:36:19;;;;;;;8.32;6.97;;;;;;;;;;5050009;28;20416;-76
2023/05/07 11:38:45;;;;;;;10.52;9.52;;;;;;;;;;5063621;28;20048;-75
2023/05/07 11:41:12;;;;;;;8.57;6.63;;;;;;;;;;5063696;28;20388;-76
2023/05/07 11:43:52;;;;;;;8.57;7.68;;;;;;;;;;5042718;28;20053;-76
2023/05/07 11:46:19;;;;;;;6.68;5.10;;;;;;;;;;5050578;28;20143;-76
2023/05/07 11:48:46;;;;;;;7.07;5.47;;;;;;;;;;5063284;28;20055;-77
2023/05/07 11:51:13;;;;;;;7.38;6.28;;;;;;;;;;5067929;28;20041;-77
2023/05/07 11:53:40;;;;;;;6.45;5.00;;;;;;;;;;5055990;28;20512;-76
2023/05/07 11:56:07;;;;;;;8.18;4.55;;;;;;;;;;5069301;28;20036;-76
2023/05/07 11:58:34;;;;;;;7.03;5.25;;;;;;;;;;5062309;28;20082;-76
2023/05/07 12:01:00;;;;;;;6.03;5.40;;;;;;;;;;5066618;28;20136;-76
2023/05/07 12:03:27;;;;;;;5.97;3.78;;;;;;;;;;5060771;28;20045;-76
2023/05/07 12:05:57;;;;;;;6.75;4.60;;;;;;;;;;5071539;28;20102;-75
2023/05/07 12:08:23;;;;;;;6.53;4.18;;;;;;;;;;5060336;28;20037;-74
2023/05/07 12:10:50;;;;;;;6.40;4.63;;;;;;;;;;5071303;28;20044;-75
2023/05/07 12:13:21;;;;;;;8.05;5.15;;;;;;;;;;5057944;28;20072;-75
2023/05/07 12:15:51;;;;;;;7.30;4.05;;;;;;;;;;5060109;28;20059;-76
2023/05/07 12:18:17;;;;;;;7.35;3.95;;;;;;;;;;5050476;28;20044;-75
2023/05/07 12:20:45;;;;;;;6.45;4.00;;;;;;;;;;5051431;28;20497;-74
2023/05/07 12:23:11;;;;;;;5.57;3.30;;;;;;;;;;5038814;28;20419;-76
2023/05/07 12:25:38;;;;;;;5.57;3.13;;;;;;;;;;5059910;28;20052;-76
2023/05/07 12:28:05;;;;;;;5.85;2.10;;;;;;;;;;5068501;28;20066;-75
2023/05/07 12:30:32;;;;;;;4.97;1.90;;;;;;;;;;5069850;28;20040;-75
2023/05/07 12:32:59;;;;;;;4.82;2.20;;;;;;;;;;5065723;28;20140;-75
2023/05/07 12:35:32;;;;;;;3.67;1.67;;;;;;;;;;5071181;28;20127;-74
2023/05/07 12:37:59;;;;;;;4.53;2.08;;;;;;;;;;5063594;28;20453;-74
2023/05/07 12:40:36;;;;;;;3.70;1.88;;;;;;;;;;5071458;28;20048;-75
2023/05/07 12:43:02;;;;;;;;;;;;;;;;;;5061796;28;20407;-75
2023/05/07 12:45:29;;;;;;;17.45;3.33;;;;;;;;;;5054774;28;20014;-75
2023/05/07 12:47:55;;;;;;;6.25;3.17;;;;;;;;;;5063293;28;20051;-74
2023/05/07 12:50:22;;;;;;;;;;;;;;;;;;5075773;28;20052;-75
2023/05/07 12:52:48;;;;;;;;;;;;;;;;;;5059647;28;19932;-74
2023/05/07 12:55:15;;;;;;;5.13;2.05;;;;;;;;;;5069833;28;19928;-75
2023/05/07 12:57:43;;;;;;;9.15;2.47;;;;;;;;;;5053353;28;20055;-75
2023/05/07 13:00:09;;;;;;;3.50;1.48;;;;;;;;;;5053457;28;20080;-75
2023/05/07 13:02:40;;;;;;;4.22;1.98;;;;;;;;;;5056887;28;20576;-73
2023/05/07 13:05:07;;;;;;;10.77;2.45;;;;;;;;;;5064002;28;20045;-74
2023/05/07 13:07:33;;;;;;;3.45;1.60;;;;;;;;;;5057399;28;20059;-75
2023/05/07 13:10:00;;;;;;;5.70;1.70;;;;;;;;;;5054119;28;20045;-74
2023/05/07 13:12:26;;;;;;;5.38;2.08;;;;;;;;;;5065203;28;20047;-75
2023/05/07 13:14:53;;;;;;;4.70;1.73;;;;;;;;;;5073493;28;20075;-74
2023/05/07 13:17:19;;;;;;;2.95;1.40;;;;;;;;;;5053780;28;20492;-75
2023/05/07 13:19:46;;;;;;;4.70;1.70;;;;;;;;;;5054147;28;20135;-76
2023/05/07 13:22:12;;;;;;;4.05;1.40;;;;;;;;;;5059595;28;20041;-75
2023/05/07 13:24:41;;;;;;;4.10;1.63;;;;;;;;;;5062902;28;20049;-74
2023/05/07 13:27:07;;;;;;;4.00;1.50;;;;;;;;;;5053270;28;20073;-75
2023/05/07 13:29:34;;;;;;;4.38;1.58;;;;;;;;;;5053157;28;20564;-76
2023/05/07 13:32:00;;;;;;;;;;;;;;;;;;5053814;28;20506;-75
2023/05/07 13:34:28;;;;;;;4.07;1.70;;;;;;;;;;5053521;28;20013;-75
2023/05/07 13:36:55;;;;;;;4.80;1.33;;;;;;;;;;5053563;28;20084;-75
2023/05/07 13:39:21;;;;;;;3.67;1.17;;;;;;;;;;5053389;28;20044;-75
2023/05/07 13:41:48;;;;;;;;;;;;;;;;;;5053917;28;20061;-75
2023/05/07 13:44:14;;;;;;;3.85;1.40;;;;;;;;;;5065951;28;19929;-75
2023/05/07 13:46:41;;;;;;;3.70;1.13;;;;;;;;;;5066762;28;20049;-76
2023/05/07 13:49:07;;;;;;;;;;;;;;;;;;5062559;28;20072;-76
2023/05/07 13:51:33;;;;;;;3.55;1.05;;;;;;;;;;5054862;28;19928;-75
2023/05/07 13:54:01;;;;;;;2.50;0.98;;;;;;;;;;5071614;28;20045;-73
2023/05/07 13:56:28;;;;;;;3.75;1.40;;;;;;;;;;5061317;28;20052;-73
2023/05/07 13:58:54;;;;;;;2.88;1.00;;;;;;;;;;5073459;28;20080;-73
2023/05/07 14:01:26;;;;;;;2.95;1.00;;;;;;;;;;5060242;28;20136;-73
2023/05/07 14:03:52;;;;;;;3.97;1.08;;;;;;;;;;5073412;28;20056;-73
2023/05/07 14:06:19;;;;;;;1.92;0.77;;;;;;;;;;5053293;28;20042;-73
2023/05/07 14:08:45;;;;;;;3.40;0.98;;;;;;;;;;5071094;28;20148;-73
2023/05/07 14:11:12;;;;;;;2.63;1.08;;;;;;;;;;5065578;28;20051;-73
2023/05/07 14:13:38;;;;;;;3.33;1.10;;;;;;;;;;5073004;28;20053;-73
2023/05/07 14:16:05;;;;;;;3.17;1.25;;;;;;;;;;5064744;28;20053;-73
2023/05/07 14:18:33;;;;;;;2.63;1.10;;;;;;;;;;5073162;28;20045;-73
2023/05/07 14:21:00;;;;;;;3.10;1.10;;;;;;;;;;5064572;28;20049;-72
2023/05/07 14:23:26;;;;;;;2.83;1.13;;;;;;;;;;5072789;28;20083;-72
2023/05/07 14:25:53;;;;;;;3.53;1.30;;;;;;;;;;5064923;28;20092;-72
2023/05/07 14:28:19;;;;;;;3.25;1.27;;;;;;;;;;5064282;28;20551;-72